sensor_id;sensor_type;location;lat;lon;timestamp;P1;durP1;ratioP1;P2;durP2;ratioP2
7669;SDS011;3877;42.562;27.636;2023-01-19T00:00:49;19.30;;;4.33;;
7669;SDS011;3877;42.562;27.636;2023-01-19T00:03:16;17.90;;;4.63;;
7669;SDS011;3877;42.562;27.636;2023-01-19T00:05:43;14.68;;;4.82;;
7669;SDS011;3877;42.562;27.636;2023-01-19T00:08:11;23.02;;;5.40;;
7669;SDS011;3877;42.562;27.636;2023-01-19T00:10:41;20.77;;;4.57;;
7669;SDS011;3877;42.562;27.636;2023-01-19T00:13:09;22.70;;;5.90;;
7669;SDS011;3877;42.562;27.636;2023-01-19T00:15:35;20.15;;;4.70;;
7669;SDS011;3877;42.562;27.636;2023-01-19T00:18:02;22.77;;;4.68;;
7669;SDS011;3877;42.562;27.636;2023-01-19T00:20:29;32.22;;;5.47;;
7669;SDS011;3877;42.562;27.636;2023-01-19T00:22:59;21.37;;;4.70;;
7669;SDS011;3877;42.562;27.636;2023-01-19T00:25:27;17.93;;;5.00;;
7669;SDS011;3877;42.562;27.636;2023-01-19T00:27:54;27.20;;;5.53;;
7669;SDS011;3877;42.562;27.636;2023-01-19T00:30:21;25.23;;;4.63;;
7669;SDS011;3877;42.562;27.636;2023-01-19T00:32:48;22.73;;;5.17;;
7669;SDS011;3877;42.562;27.636;2023-01-19T00:35:15;25.47;;;4.90;;
7669;SDS011;3877;42.562;27.636;2023-01-19T00:37:42;25.63;;;4.88;;
7669;SDS011;3877;42.562;27.636;2023-01-19T00:40:10;21.80;;;4.57;;
7669;SDS011;3877;42.562;27.636;2023-01-19T00:42:39;21.63;;;4.57;;
7669;SDS011;3877;42.562;27.636;2023-01-19T00:45:05;26.07;;;5.43;;
7669;SDS011;3877;42.562;27.636;2023-01-19T00:47:32;26.00;;;4.87;;
7669;SDS011;3877;42.562;27.636;2023-01-19T00:49:59;26.17;;;5.17;;
7669;SDS011;3877;42.562;27.636;2023-01-19T00:52:26;28.33;;;5.53;;
7669;SDS011;3877;42.562;27.636;2023-01-19T00:54:53;23.67;;;4.73;;
7669;SDS011;3877;42.562;27.636;2023-01-19T00:57:20;28.40;;;4.87;;
7669;SDS011;3877;42.562;27.636;2023-01-19T00:59:48;32.90;;;5.32;;
7669;SDS011;3877;42.562;27.636;2023-01-19T01:02:15;24.47;;;5.27;;
7669;SDS011;3877;42.562;27.636;2023-01-19T01:04:41;33.28;;;5.22;;
7669;SDS011;3877;42.562;27.636;2023-01-19T01:07:08;27.40;;;5.50;;
7669;SDS011;3877;42.562;27.636;2023-01-19T01:09:35;29.13;;;5.63;;
7669;SDS011;3877;42.562;27.636;2023-01-19T01:12:02;20.47;;;4.70;;
7669;SDS011;3877;42.562;27.636;2023-01-19T01:14:28;26.50;;;5.10;;
7669;SDS011;3877;42.562;27.636;2023-01-19T01:16:57;28.77;;;4.70;;
7669;SDS011;3877;42.562;27.636;2023-01-19T01:19:24;29.87;;;4.83;;
7669;SDS011;3877;42.562;27.636;2023-01-19T01:21:51;23.30;;;5.17;;
7669;SDS011;3877;42.562;27.636;2023-01-19T01:24:18;23.13;;;4.83;;
7669;SDS011;3877;42.562;27.636;2023-01-19T01:26:45;22.57;;;4.07;;
7669;SDS011;3877;42.562;27.636;2023-01-19T01:29:12;22.60;;;4.80;;
7669;SDS011;3877;42.562;27.636;2023-01-19T01:31:38;18.15;;;4.10;;
7669;SDS011;3877;42.562;27.636;2023-01-19T01:34:07;22.87;;;4.47;;
7669;SDS011;3877;42.562;27.636;2023-01-19T01:36:34;29.77;;;5.15;;
7669;SDS011;3877;42.562;27.636;2023-01-19T01:39:00;26.92;;;4.95;;
7669;SDS011;3877;42.562;27.636;2023-01-19T01:41:27;25.40;;;4.60;;
7669;SDS011;3877;42.562;27.636;2023-01-19T01:43:55;19.50;;;4.97;;
7669;SDS011;3877;42.562;27.636;2023-01-19T01:46:26;33.33;;;4.87;;
7669;SDS011;3877;42.562;27.636;2023-01-19T01:48:54;23.73;;;4.70;;
7669;SDS011;3877;42.562;27.636;2023-01-19T01:51:25;26.17;;;5.57;;
7669;SDS011;3877;42.562;27.636;2023-01-19T01:54:03;27.05;;;5.25;;
7669;SDS011;3877;42.562;27.636;2023-01-19T01:56:33;20.83;;;4.67;;
7669;SDS011;3877;42.562;27.636;2023-01-19T01:59:00;27.47;;;5.10;;
7669;SDS011;3877;42.562;27.636;2023-01-19T02:01:28;26.87;;;4.83;;
7669;SDS011;3877;42.562;27.636;2023-01-19T02:04:12;25.10;;;5.13;;
7669;SDS011;3877;42.562;27.636;2023-01-19T02:06:40;25.58;;;4.38;;
7669;SDS011;3877;42.562;27.636;2023-01-19T02:09:25;29.40;;;5.23;;
7669;SDS011;3877;42.562;27.636;2023-01-19T02:12:10;25.80;;;5.07;;
7669;SDS011;3877;42.562;27.636;2023-01-19T02:14:54;35.90;;;6.10;;
7669;SDS011;3877;42.562;27.636;2023-01-19T02:17:21;26.25;;;5.03;;
7669;SDS011;3877;42.562;27.636;2023-01-19T02:19:48;29.97;;;5.17;;
7669;SDS011;3877;42.562;27.636;2023-01-19T02:22:19;25.27;;;4.82;;
7669;SDS011;3877;42.562;27.636;2023-01-19T02:24:49;30.20;;;5.03;;
7669;SDS011;3877;42.562;27.636;2023-01-19T02:27:16;27.70;;;5.47;;
7669;SDS011;3877;42.562;27.636;2023-01-19T02:29:44;29.50;;;6.00;;
7669;SDS011;3877;42.562;27.636;2023-01-19T02:32:11;30.37;;;5.70;;
7669;SDS011;3877;42.562;27.636;2023-01-19T02:34:37;24.70;;;5.20;;
7669;SDS011;3877;42.562;27.636;2023-01-19T02:37:05;27.73;;;4.93;;
7669;SDS011;3877;42.562;27.636;2023-01-19T02:39:33;24.83;;;5.85;;
7669;SDS011;3877;42.562;27.636;2023-01-19T02:42:02;27.33;;;5.77;;
7669;SDS011;3877;42.562;27.636;2023-01-19T02:44:30;29.48;;;5.28;;
7669;SDS011;3877;42.562;27.636;2023-01-19T02:46:57;30.95;;;6.22;;
7669;SDS011;3877;42.562;27.636;2023-01-19T02:49:26;29.17;;;5.77;;
7669;SDS011;3877;42.562;27.636;2023-01-19T02:51:53;17.30;;;4.25;;
7669;SDS011;3877;42.562;27.636;2023-01-19T02:57:10;31.67;;;5.60;;
7669;SDS011;3877;42.562;27.636;2023-01-19T02:59:49;22.98;;;5.55;;
7669;SDS011;3877;42.562;27.636;2023-01-19T03:05:10;31.85;;;5.20;;
7669;SDS011;3877;42.562;27.636;2023-01-19T03:07:42;26.53;;;5.17;;
7669;SDS011;3877;42.562;27.636;2023-01-19T03:10:11;34.43;;;5.80;;
7669;SDS011;3877;42.562;27.636;2023-01-19T03:12:43;26.77;;;5.63;;
7669;SDS011;3877;42.562;27.636;2023-01-19T03:15:12;30.33;;;5.43;;
7669;SDS011;3877;42.562;27.636;2023-01-19T03:17:42;22.90;;;5.67;;
7669;SDS011;3877;42.562;27.636;2023-01-19T03:20:11;27.42;;;5.45;;
7669;SDS011;3877;42.562;27.636;2023-01-19T03:22:39;27.30;;;5.05;;
7669;SDS011;3877;42.562;27.636;2023-01-19T03:25:07;24.98;;;5.18;;
7669;SDS011;3877;42.562;27.636;2023-01-19T03:27:34;33.40;;;5.22;;
7669;SDS011;3877;42.562;27.636;2023-01-19T03:30:07;21.35;;;4.57;;
7669;SDS011;3877;42.562;27.636;2023-01-19T03:32:35;29.00;;;4.57;;
7669;SDS011;3877;42.562;27.636;2023-01-19T03:35:04;33.83;;;5.80;;
7669;SDS011;3877;42.562;27.636;2023-01-19T03:37:32;33.28;;;5.05;;
7669;SDS011;3877;42.562;27.636;2023-01-19T03:40:01;26.38;;;5.50;;
7669;SDS011;3877;42.562;27.636;2023-01-19T03:42:28;34.90;;;6.53;;
7669;SDS011;3877;42.562;27.636;2023-01-19T03:44:55;31.70;;;5.90;;
7669;SDS011;3877;42.562;27.636;2023-01-19T03:47:24;26.50;;;4.80;;
7669;SDS011;3877;42.562;27.636;2023-01-19T03:49:51;33.27;;;5.47;;
7669;SDS011;3877;42.562;27.636;2023-01-19T03:52:26;28.33;;;5.30;;
7669;SDS011;3877;42.562;27.636;2023-01-19T03:54:54;30.55;;;5.40;;
7669;SDS011;3877;42.562;27.636;2023-01-19T03:57:20;36.40;;;6.13;;
7669;SDS011;3877;42.562;27.636;2023-01-19T03:59:47;33.00;;;6.40;;
7669;SDS011;3877;42.562;27.636;2023-01-19T04:02:14;24.77;;;5.30;;
7669;SDS011;3877;42.562;27.636;2023-01-19T04:04:43;29.90;;;4.77;;
7669;SDS011;3877;42.562;27.636;2023-01-19T04:07:09;27.67;;;5.57;;
7669;SDS011;3877;42.562;27.636;2023-01-19T04:09:36;27.60;;;5.50;;
7669;SDS011;3877;42.562;27.636;2023-01-19T04:12:03;27.30;;;5.53;;
7669;SDS011;3877;42.562;27.636;2023-01-19T04:14:30;28.55;;;5.90;;
7669;SDS011;3877;42.562;27.636;2023-01-19T04:16:57;28.30;;;5.57;;
7669;SDS011;3877;42.562;27.636;2023-01-19T04:19:24;29.47;;;5.83;;
7669;SDS011;3877;42.562;27.636;2023-01-19T04:21:52;26.57;;;5.37;;
7669;SDS011;3877;42.562;27.636;2023-01-19T04:24:20;30.40;;;5.70;;
7669;SDS011;3877;42.562;27.636;2023-01-19T04:26:47;29.87;;;6.27;;
7669;SDS011;3877;42.562;27.636;2023-01-19T04:29:16;29.33;;;5.33;;
7669;SDS011;3877;42.562;27.636;2023-01-19T04:31:43;23.20;;;5.27;;
7669;SDS011;3877;42.562;27.636;2023-01-19T04:34:09;30.27;;;5.40;;
7669;SDS011;3877;42.562;27.636;2023-01-19T04:36:36;30.90;;;5.80;;
7669;SDS011;3877;42.562;27.636;2023-01-19T04:39:05;36.93;;;6.47;;
7669;SDS011;3877;42.562;27.636;2023-01-19T04:41:33;23.87;;;5.83;;
7669;SDS011;3877;42.562;27.636;2023-01-19T04:44:00;37.60;;;6.50;;
7669;SDS011;3877;42.562;27.636;2023-01-19T04:46:27;32.00;;;6.27;;
7669;SDS011;3877;42.562;27.636;2023-01-19T04:48:53;27.67;;;6.30;;
7669;SDS011;3877;42.562;27.636;2023-01-19T04:51:20;29.47;;;6.27;;
7669;SDS011;3877;42.562;27.636;2023-01-19T04:53:47;29.10;;;6.17;;
7669;SDS011;3877;42.562;27.636;2023-01-19T04:56:15;32.90;;;5.60;;
7669;SDS011;3877;42.562;27.636;2023-01-19T04:58:42;26.67;;;5.07;;
7669;SDS011;3877;42.562;27.636;2023-01-19T05:01:09;26.53;;;6.00;;
7669;SDS011;3877;42.562;27.636;2023-01-19T05:03:36;31.97;;;5.83;;
7669;SDS011;3877;42.562;27.636;2023-01-19T05:06:04;24.20;;;5.90;;
7669;SDS011;3877;42.562;27.636;2023-01-19T05:08:32;30.53;;;5.70;;
7669;SDS011;3877;42.562;27.636;2023-01-19T05:10:59;29.90;;;5.17;;
7669;SDS011;3877;42.562;27.636;2023-01-19T05:13:27;29.37;;;4.97;;
7669;SDS011;3877;42.562;27.636;2023-01-19T05:15:54;24.67;;;5.50;;
7669;SDS011;3877;42.562;27.636;2023-01-19T05:18:21;31.83;;;5.53;;
7669;SDS011;3877;42.562;27.636;2023-01-19T05:20:47;32.87;;;7.23;;
7669;SDS011;3877;42.562;27.636;2023-01-19T05:23:14;31.40;;;8.70;;
7669;SDS011;3877;42.562;27.636;2023-01-19T05:25:41;41.80;;;10.27;;
7669;SDS011;3877;42.562;27.636;2023-01-19T05:28:08;29.80;;;8.37;;
7669;SDS011;3877;42.562;27.636;2023-01-19T05:30:37;43.60;;;10.43;;
7669;SDS011;3877;42.562;27.636;2023-01-19T05:33:04;31.13;;;7.37;;
7669;SDS011;3877;42.562;27.636;2023-01-19T05:35:30;35.47;;;7.67;;
7669;SDS011;3877;42.562;27.636;2023-01-19T05:37:57;37.30;;;6.90;;
7669;SDS011;3877;42.562;27.636;2023-01-19T05:40:25;36.67;;;8.57;;
7669;SDS011;3877;42.562;27.636;2023-01-19T05:42:52;29.70;;;6.67;;
7669;SDS011;3877;42.562;27.636;2023-01-19T05:45:19;32.17;;;6.77;;
7669;SDS011;3877;42.562;27.636;2023-01-19T05:47:47;32.00;;;6.47;;
7669;SDS011;3877;42.562;27.636;2023-01-19T05:50:14;29.03;;;6.37;;
7669;SDS011;3877;42.562;27.636;2023-01-19T05:52:41;33.97;;;6.13;;
7669;SDS011;3877;42.562;27.636;2023-01-19T05:55:08;27.40;;;6.17;;
7669;SDS011;3877;42.562;27.636;2023-01-19T05:57:35;25.43;;;5.60;;
7669;SDS011;3877;42.562;27.636;2023-01-19T06:00:02;32.63;;;6.67;;
7669;SDS011;3877;42.562;27.636;2023-01-19T06:02:29;31.73;;;5.40;;
7669;SDS011;3877;42.562;27.636;2023-01-19T06:04:57;40.33;;;6.37;;
7669;SDS011;3877;42.562;27.636;2023-01-19T06:07:24;38.23;;;6.77;;
7669;SDS011;3877;42.562;27.636;2023-01-19T06:09:51;30.10;;;6.30;;
7669;SDS011;3877;42.562;27.636;2023-01-19T06:12:18;38.77;;;7.13;;
7669;SDS011;3877;42.562;27.636;2023-01-19T06:14:45;43.47;;;6.87;;
7669;SDS011;3877;42.562;27.636;2023-01-19T06:17:12;35.77;;;6.67;;
7669;SDS011;3877;42.562;27.636;2023-01-19T06:19:38;32.13;;;6.17;;
7669;SDS011;3877;42.562;27.636;2023-01-19T06:22:07;30.57;;;7.10;;
7669;SDS011;3877;42.562;27.636;2023-01-19T06:24:34;35.70;;;5.80;;
7669;SDS011;3877;42.562;27.636;2023-01-19T06:27:01;28.30;;;6.30;;
7669;SDS011;3877;42.562;27.636;2023-01-19T06:29:28;31.63;;;5.57;;
7669;SDS011;3877;42.562;27.636;2023-01-19T06:31:54;32.33;;;5.97;;
7669;SDS011;3877;42.562;27.636;2023-01-19T06:34:21;34.57;;;6.80;;
7669;SDS011;3877;42.562;27.636;2023-01-19T06:36:52;32.90;;;6.93;;
7669;SDS011;3877;42.562;27.636;2023-01-19T06:39:21;42.70;;;11.50;;
7669;SDS011;3877;42.562;27.636;2023-01-19T06:41:47;39.08;;;8.88;;
7669;SDS011;3877;42.562;27.636;2023-01-19T06:44:14;28.50;;;6.50;;
7669;SDS011;3877;42.562;27.636;2023-01-19T06:46:41;27.63;;;6.70;;
7669;SDS011;3877;42.562;27.636;2023-01-19T06:49:08;29.98;;;7.07;;
7669;SDS011;3877;42.562;27.636;2023-01-19T06:51:35;32.60;;;6.57;;
7669;SDS011;3877;42.562;27.636;2023-01-19T06:54:02;33.67;;;6.87;;
7669;SDS011;3877;42.562;27.636;2023-01-19T06:56:30;29.63;;;5.70;;
7669;SDS011;3877;42.562;27.636;2023-01-19T06:58:57;26.93;;;5.53;;
7669;SDS011;3877;42.562;27.636;2023-01-19T07:01:24;30.70;;;6.57;;
7669;SDS011;3877;42.562;27.636;2023-01-19T07:03:52;34.00;;;6.70;;
7669;SDS011;3877;42.562;27.636;2023-01-19T07:06:19;34.97;;;6.37;;
7669;SDS011;3877;42.562;27.636;2023-01-19T07:08:46;42.80;;;7.23;;
7669;SDS011;3877;42.562;27.636;2023-01-19T07:11:12;29.55;;;6.10;;
7669;SDS011;3877;42.562;27.636;2023-01-19T07:13:41;29.25;;;5.78;;
7669;SDS011;3877;42.562;27.636;2023-01-19T07:16:12;30.97;;;6.03;;
7669;SDS011;3877;42.562;27.636;2023-01-19T07:18:39;26.40;;;5.38;;
7669;SDS011;3877;42.562;27.636;2023-01-19T07:21:06;28.83;;;7.13;;
7669;SDS011;3877;42.562;27.636;2023-01-19T07:23:33;32.00;;;7.13;;
7669;SDS011;3877;42.562;27.636;2023-01-19T07:26:02;33.87;;;7.03;;
7669;SDS011;3877;42.562;27.636;2023-01-19T07:28:29;31.23;;;6.07;;
7669;SDS011;3877;42.562;27.636;2023-01-19T07:30:58;37.23;;;8.03;;
7669;SDS011;3877;42.562;27.636;2023-01-19T07:33:25;38.53;;;7.40;;
7669;SDS011;3877;42.562;27.636;2023-01-19T07:35:52;29.33;;;7.43;;
7669;SDS011;3877;42.562;27.636;2023-01-19T07:38:19;29.93;;;7.07;;
7669;SDS011;3877;42.562;27.636;2023-01-19T07:40:46;37.43;;;8.30;;
7669;SDS011;3877;42.562;27.636;2023-01-19T07:43:13;45.97;;;10.27;;
7669;SDS011;3877;42.562;27.636;2023-01-19T07:45:40;32.70;;;6.73;;
7669;SDS011;3877;42.562;27.636;2023-01-19T07:48:08;28.17;;;6.37;;
7669;SDS011;3877;42.562;27.636;2023-01-19T07:50:35;26.70;;;5.38;;
7669;SDS011;3877;42.562;27.636;2023-01-19T07:53:05;31.27;;;6.60;;
7669;SDS011;3877;42.562;27.636;2023-01-19T07:55:32;33.77;;;9.13;;
7669;SDS011;3877;42.562;27.636;2023-01-19T07:57:59;35.85;;;7.25;;
7669;SDS011;3877;42.562;27.636;2023-01-19T08:00:25;27.17;;;5.97;;
7669;SDS011;3877;42.562;27.636;2023-01-19T08:02:57;25.17;;;5.87;;
7669;SDS011;3877;42.562;27.636;2023-01-19T08:05:25;36.83;;;5.97;;
7669;SDS011;3877;42.562;27.636;2023-01-19T08:07:53;32.23;;;7.07;;
7669;SDS011;3877;42.562;27.636;2023-01-19T08:10:22;33.28;;;6.85;;
7669;SDS011;3877;42.562;27.636;2023-01-19T08:12:50;30.60;;;6.10;;
7669;SDS011;3877;42.562;27.636;2023-01-19T08:15:17;33.63;;;6.57;;
7669;SDS011;3877;42.562;27.636;2023-01-19T08:17:44;32.20;;;8.80;;
7669;SDS011;3877;42.562;27.636;2023-01-19T08:20:11;35.45;;;9.00;;
7669;SDS011;3877;42.562;27.636;2023-01-19T08:22:39;36.40;;;6.80;;
7669;SDS011;3877;42.562;27.636;2023-01-19T08:25:07;33.30;;;6.90;;
7669;SDS011;3877;42.562;27.636;2023-01-19T08:27:34;37.13;;;6.00;;
7669;SDS011;3877;42.562;27.636;2023-01-19T08:30:00;28.77;;;5.07;;
7669;SDS011;3877;42.562;27.636;2023-01-19T08:32:27;29.70;;;4.53;;
7669;SDS011;3877;42.562;27.636;2023-01-19T08:34:54;23.00;;;5.00;;
7669;SDS011;3877;42.562;27.636;2023-01-19T08:37:21;32.03;;;4.87;;
7669;SDS011;3877;42.562;27.636;2023-01-19T08:39:50;36.55;;;5.45;;
7669;SDS011;3877;42.562;27.636;2023-01-19T08:42:18;35.25;;;14.45;;
7669;SDS011;3877;42.562;27.636;2023-01-19T08:44:44;38.30;;;11.90;;
7669;SDS011;3877;42.562;27.636;2023-01-19T08:47:11;27.20;;;7.70;;
7669;SDS011;3877;42.562;27.636;2023-01-19T08:49:38;34.80;;;5.83;;
7669;SDS011;3877;42.562;27.636;2023-01-19T08:52:05;24.20;;;6.47;;
7669;SDS011;3877;42.562;27.636;2023-01-19T08:54:32;27.73;;;5.20;;
7669;SDS011;3877;42.562;27.636;2023-01-19T08:57:00;33.00;;;5.97;;
7669;SDS011;3877;42.562;27.636;2023-01-19T08:59:27;23.52;;;6.18;;
7669;SDS011;3877;42.562;27.636;2023-01-19T09:01:53;25.73;;;4.78;;
7669;SDS011;3877;42.562;27.636;2023-01-19T09:04:20;33.65;;;5.50;;
7669;SDS011;3877;42.562;27.636;2023-01-19T09:06:47;26.90;;;4.25;;
7669;SDS011;3877;42.562;27.636;2023-01-19T09:09:14;19.98;;;3.85;;
7669;SDS011;3877;42.562;27.636;2023-01-19T09:11:40;29.45;;;4.35;;
7669;SDS011;3877;42.562;27.636;2023-01-19T09:14:09;28.77;;;5.38;;
7669;SDS011;3877;42.562;27.636;2023-01-19T09:16:36;28.63;;;4.68;;
7669;SDS011;3877;42.562;27.636;2023-01-19T09:19:02;24.23;;;4.90;;
7669;SDS011;3877;42.562;27.636;2023-01-19T09:21:32;25.90;;;4.22;;
7669;SDS011;3877;42.562;27.636;2023-01-19T09:23:59;30.02;;;5.80;;
7669;SDS011;3877;42.562;27.636;2023-01-19T09:26:26;32.25;;;4.80;;
7669;SDS011;3877;42.562;27.636;2023-01-19T09:28:53;28.13;;;5.22;;
7669;SDS011;3877;42.562;27.636;2023-01-19T09:31:21;29.05;;;5.88;;
7669;SDS011;3877;42.562;27.636;2023-01-19T09:33:48;33.90;;;5.47;;
7669;SDS011;3877;42.562;27.636;2023-01-19T09:36:15;28.92;;;5.00;;
7669;SDS011;3877;42.562;27.636;2023-01-19T09:38:41;37.95;;;6.55;;
7669;SDS011;3877;42.562;27.636;2023-01-19T09:41:12;23.15;;;5.00;;
7669;SDS011;3877;42.562;27.636;2023-01-19T09:43:42;20.98;;;5.13;;
7669;SDS011;3877;42.562;27.636;2023-01-19T09:46:12;26.73;;;5.28;;
7669;SDS011;3877;42.562;27.636;2023-01-19T09:48:44;29.65;;;5.38;;
7669;SDS011;3877;42.562;27.636;2023-01-19T09:51:12;32.17;;;5.85;;
7669;SDS011;3877;42.562;27.636;2023-01-19T09:53:42;28.95;;;5.32;;
7669;SDS011;3877;42.562;27.636;2023-01-19T09:56:11;29.83;;;4.82;;
7669;SDS011;3877;42.562;27.636;2023-01-19T09:58:39;40.28;;;6.32;;
7669;SDS011;3877;42.562;27.636;2023-01-19T10:01:08;30.02;;;4.68;;
7669;SDS011;3877;42.562;27.636;2023-01-19T10:03:39;29.67;;;4.97;;
7669;SDS011;3877;42.562;27.636;2023-01-19T10:06:08;20.67;;;4.10;;
7669;SDS011;3877;42.562;27.636;2023-01-19T10:08:38;19.10;;;3.90;;
7669;SDS011;3877;42.562;27.636;2023-01-19T10:11:10;22.83;;;3.75;;
7669;SDS011;3877;42.562;27.636;2023-01-19T10:13:42;24.45;;;4.13;;
7669;SDS011;3877;42.562;27.636;2023-01-19T10:16:16;35.33;;;8.95;;
7669;SDS011;3877;42.562;27.636;2023-01-19T10:18:46;17.50;;;3.60;;
7669;SDS011;3877;42.562;27.636;2023-01-19T10:21:18;22.98;;;4.75;;
7669;SDS011;3877;42.562;27.636;2023-01-19T10:23:46;17.30;;;3.75;;
7669;SDS011;3877;42.562;27.636;2023-01-19T10:26:15;20.92;;;4.38;;
7669;SDS011;3877;42.562;27.636;2023-01-19T10:28:42;17.63;;;3.97;;
7669;SDS011;3877;42.562;27.636;2023-01-19T10:31:10;22.65;;;3.90;;
7669;SDS011;3877;42.562;27.636;2023-01-19T10:33:37;25.15;;;4.28;;
7669;SDS011;3877;42.562;27.636;2023-01-19T10:36:05;19.30;;;4.57;;
7669;SDS011;3877;42.562;27.636;2023-01-19T10:38:33;19.50;;;4.10;;
7669;SDS011;3877;42.562;27.636;2023-01-19T10:41:00;20.97;;;3.97;;
7669;SDS011;3877;42.562;27.636;2023-01-19T10:43:34;18.45;;;3.60;;
7669;SDS011;3877;42.562;27.636;2023-01-19T10:46:01;24.38;;;4.72;;
7669;SDS011;3877;42.562;27.636;2023-01-19T10:48:35;15.68;;;3.90;;
7669;SDS011;3877;42.562;27.636;2023-01-19T10:51:03;23.00;;;4.30;;
7669;SDS011;3877;42.562;27.636;2023-01-19T10:53:30;17.20;;;3.72;;
7669;SDS011;3877;42.562;27.636;2023-01-19T10:56:15;19.55;;;3.35;;
7669;SDS011;3877;42.562;27.636;2023-01-19T10:58:42;25.17;;;4.47;;
7669;SDS011;3877;42.562;27.636;2023-01-19T11:01:13;21.13;;;4.47;;
7669;SDS011;3877;42.562;27.636;2023-01-19T11:03:41;22.08;;;3.88;;
7669;SDS011;3877;42.562;27.636;2023-01-19T11:06:24;19.05;;;4.47;;
7669;SDS011;3877;42.562;27.636;2023-01-19T11:08:52;22.48;;;4.00;;
7669;SDS011;3877;42.562;27.636;2023-01-19T11:11:41;18.17;;;4.13;;
7669;SDS011;3877;42.562;27.636;2023-01-19T11:14:09;19.15;;;3.58;;
7669;SDS011;3877;42.562;27.636;2023-01-19T11:16:36;23.90;;;4.32;;
7669;SDS011;3877;42.562;27.636;2023-01-19T11:19:04;22.63;;;3.92;;
7669;SDS011;3877;42.562;27.636;2023-01-19T11:21:31;18.92;;;3.40;;
7669;SDS011;3877;42.562;27.636;2023-01-19T11:23:58;26.35;;;4.22;;
7669;SDS011;3877;42.562;27.636;2023-01-19T11:26:26;20.65;;;4.05;;
7669;SDS011;3877;42.562;27.636;2023-01-19T11:28:57;16.70;;;3.70;;
7669;SDS011;3877;42.562;27.636;2023-01-19T11:31:31;18.60;;;3.88;;
7669;SDS011;3877;42.562;27.636;2023-01-19T11:33:59;21.55;;;3.88;;
7669;SDS011;3877;42.562;27.636;2023-01-19T11:36:27;21.10;;;4.13;;
7669;SDS011;3877;42.562;27.636;2023-01-19T11:38:55;15.13;;;3.22;;
7669;SDS011;3877;42.562;27.636;2023-01-19T11:41:24;16.38;;;3.95;;
7669;SDS011;3877;42.562;27.636;2023-01-19T11:43:52;15.75;;;3.83;;
7669;SDS011;3877;42.562;27.636;2023-01-19T11:46:21;17.50;;;3.85;;
7669;SDS011;3877;42.562;27.636;2023-01-19T11:48:51;17.88;;;4.00;;
7669;SDS011;3877;42.562;27.636;2023-01-19T11:51:21;17.90;;;3.45;;
7669;SDS011;3877;42.562;27.636;2023-01-19T11:53:50;14.52;;;3.20;;
7669;SDS011;3877;42.562;27.636;2023-01-19T11:56:17;15.55;;;3.38;;
7669;SDS011;3877;42.562;27.636;2023-01-19T11:58:47;17.92;;;3.67;;
7669;SDS011;3877;42.562;27.636;2023-01-19T12:01:16;18.50;;;3.88;;
7669;SDS011;3877;42.562;27.636;2023-01-19T12:03:47;21.17;;;3.97;;
7669;SDS011;3877;42.562;27.636;2023-01-19T12:06:17;17.23;;;3.38;;
7669;SDS011;3877;42.562;27.636;2023-01-19T12:08:46;19.95;;;3.80;;
7669;SDS011;3877;42.562;27.636;2023-01-19T12:11:14;12.63;;;3.00;;
7669;SDS011;3877;42.562;27.636;2023-01-19T12:13:42;9.75;;;3.00;;
7669;SDS011;3877;42.562;27.636;2023-01-19T12:16:11;13.88;;;3.60;;
7669;SDS011;3877;42.562;27.636;2023-01-19T12:18:40;17.02;;;3.88;;
7669;SDS011;3877;42.562;27.636;2023-01-19T12:21:09;13.40;;;3.33;;
7669;SDS011;3877;42.562;27.636;2023-01-19T12:23:43;17.33;;;3.60;;
7669;SDS011;3877;42.562;27.636;2023-01-19T12:26:19;17.15;;;3.88;;
7669;SDS011;3877;42.562;27.636;2023-01-19T12:28:48;14.73;;;3.35;;
7669;SDS011;3877;42.562;27.636;2023-01-19T12:31:16;10.90;;;2.63;;
7669;SDS011;3877;42.562;27.636;2023-01-19T12:33:44;15.13;;;3.08;;
7669;SDS011;3877;42.562;27.636;2023-01-19T12:36:33;18.05;;;4.05;;
7669;SDS011;3877;42.562;27.636;2023-01-19T12:39:01;9.90;;;2.80;;
7669;SDS011;3877;42.562;27.636;2023-01-19T12:41:28;13.45;;;3.13;;
7669;SDS011;3877;42.562;27.636;2023-01-19T12:46:38;10.55;;;2.75;;
7669;SDS011;3877;42.562;27.636;2023-01-19T12:49:09;11.57;;;3.10;;
7669;SDS011;3877;42.562;27.636;2023-01-19T12:51:39;13.90;;;3.17;;
7669;SDS011;3877;42.562;27.636;2023-01-19T12:54:06;10.50;;;3.17;;
7669;SDS011;3877;42.562;27.636;2023-01-19T12:56:35;14.23;;;3.38;;
7669;SDS011;3877;42.562;27.636;2023-01-19T12:59:02;22.17;;;3.22;;
7669;SDS011;3877;42.562;27.636;2023-01-19T13:01:30;16.33;;;3.15;;
7669;SDS011;3877;42.562;27.636;2023-01-19T13:03:58;11.98;;;2.78;;
7669;SDS011;3877;42.562;27.636;2023-01-19T13:12:17;14.65;;;3.03;;
7669;SDS011;3877;42.562;27.636;2023-01-19T13:14:45;10.77;;;3.10;;
7669;SDS011;3877;42.562;27.636;2023-01-19T13:20:00;9.48;;;2.80;;
7669;SDS011;3877;42.562;27.636;2023-01-19T13:25:29;8.23;;;2.67;;
7669;SDS011;3877;42.562;27.636;2023-01-19T13:28:00;16.38;;;3.33;;
7669;SDS011;3877;42.562;27.636;2023-01-19T13:30:28;12.32;;;2.95;;
7669;SDS011;3877;42.562;27.636;2023-01-19T13:32:55;11.85;;;3.08;;
7669;SDS011;3877;42.562;27.636;2023-01-19T13:35:22;8.63;;;2.70;;
7669;SDS011;3877;42.562;27.636;2023-01-19T13:37:49;13.88;;;2.80;;
7669;SDS011;3877;42.562;27.636;2023-01-19T13:40:17;12.18;;;3.50;;
7669;SDS011;3877;42.562;27.636;2023-01-19T13:42:46;13.52;;;3.10;;
7669;SDS011;3877;42.562;27.636;2023-01-19T13:45:20;13.13;;;3.28;;
7669;SDS011;3877;42.562;27.636;2023-01-19T13:47:51;13.02;;;3.15;;
7669;SDS011;3877;42.562;27.636;2023-01-19T13:50:18;14.02;;;2.83;;
7669;SDS011;3877;42.562;27.636;2023-01-19T13:52:46;15.27;;;2.78;;
7669;SDS011;3877;42.562;27.636;2023-01-19T13:55:13;14.27;;;3.05;;
7669;SDS011;3877;42.562;27.636;2023-01-19T13:57:42;12.80;;;2.78;;
7669;SDS011;3877;42.562;27.636;2023-01-19T14:00:18;15.50;;;2.83;;
7669;SDS011;3877;42.562;27.636;2023-01-19T14:02:52;13.63;;;2.78;;
7669;SDS011;3877;42.562;27.636;2023-01-19T14:05:21;15.15;;;2.70;;
7669;SDS011;3877;42.562;27.636;2023-01-19T14:07:58;15.63;;;4.65;;
7669;SDS011;3877;42.562;27.636;2023-01-19T14:10:25;9.13;;;2.55;;
7669;SDS011;3877;42.562;27.636;2023-01-19T14:12:56;12.80;;;3.03;;
7669;SDS011;3877;42.562;27.636;2023-01-19T14:15:25;11.48;;;3.05;;
7669;SDS011;3877;42.562;27.636;2023-01-19T14:18:06;13.15;;;2.78;;
7669;SDS011;3877;42.562;27.636;2023-01-19T14:20:33;10.38;;;2.78;;
7669;SDS011;3877;42.562;27.636;2023-01-19T14:23:01;16.50;;;3.42;;
7669;SDS011;3877;42.562;27.636;2023-01-19T14:25:28;7.03;;;2.72;;
7669;SDS011;3877;42.562;27.636;2023-01-19T14:30:52;12.80;;;3.40;;
7669;SDS011;3877;42.562;27.636;2023-01-19T14:33:32;18.52;;;3.97;;
7669;SDS011;3877;42.562;27.636;2023-01-19T14:36:06;19.17;;;3.75;;
7669;SDS011;3877;42.562;27.636;2023-01-19T14:38:33;18.08;;;3.53;;
7669;SDS011;3877;42.562;27.636;2023-01-19T14:41:01;13.77;;;3.85;;
7669;SDS011;3877;42.562;27.636;2023-01-19T14:43:28;19.80;;;3.35;;
7669;SDS011;3877;42.562;27.636;2023-01-19T14:45:56;12.20;;;2.72;;
7669;SDS011;3877;42.562;27.636;2023-01-19T14:48:23;8.73;;;2.70;;
7669;SDS011;3877;42.562;27.636;2023-01-19T14:50:58;16.90;;;3.28;;
7669;SDS011;3877;42.562;27.636;2023-01-19T14:53:26;17.52;;;3.35;;
7669;SDS011;3877;42.562;27.636;2023-01-19T14:55:54;18.17;;;3.50;;
7669;SDS011;3877;42.562;27.636;2023-01-19T14:58:23;15.33;;;3.60;;
7669;SDS011;3877;42.562;27.636;2023-01-19T15:00:51;14.93;;;3.45;;
7669;SDS011;3877;42.562;27.636;2023-01-19T15:03:21;21.52;;;6.63;;
7669;SDS011;3877;42.562;27.636;2023-01-19T15:05:48;12.77;;;3.78;;
7669;SDS011;3877;42.562;27.636;2023-01-19T15:08:15;18.30;;;5.67;;
7669;SDS011;3877;42.562;27.636;2023-01-19T15:11:01;16.70;;;4.50;;
7669;SDS011;3877;42.562;27.636;2023-01-19T15:13:31;13.70;;;3.63;;
7669;SDS011;3877;42.562;27.636;2023-01-19T15:15:58;21.00;;;4.13;;
7669;SDS011;3877;42.562;27.636;2023-01-19T15:18:28;14.20;;;3.50;;